KTCS/TCS METAR and TAF weather

Enter ICAO airport designator
Station Type Date Time Source
KTCS METAR 2020/04/06 13:53 UTC NOAA

KTCS 061353Z AUTO 07003KT 10SM CLR 12/M04 A3002 RMK AO2 SLP104 T01221044


Station Type Date Time Source
KTCS Decoded METAR 2020/04/06 13:53 UTC NOAA

TRUTH OR CONSEQUENCES MUNI, NM, United States (KTCS) 33-14N 107-16W 1469M
Apr 06, 2020 - 09:53 AM EDT / 2020.04.06 1353 UTC
Wind: from the ENE (070 degrees) at 3 MPH (3 KT):0
Visibility: 10 mile(s):0
Sky conditions: clear
Temperature: 54.0 F (12.2 C)
Dew Point: 24.1 F (-4.4 C)
Relative Humidity: 31%
Pressure (altimeter): 30.02 in. Hg (1016 hPa)
ob: KTCS 061353Z AUTO 07003KT 10SM CLR 12/M04 A3002 RMK AO2 SLP104 T01221044
cycle: 14

Station Type Date Time Source
KTCS TAF 2020/04/06 12:42 UTC NOAA

TAF KTCS 061141Z 0612/0712 24006KT P6SM SKC
FM061800 20010G20KT P6SM SCT250
FM062100 21016G28KT P6SM SCT250
FM070200 25012KT P6SM FEW250

Example: see airport list